sensor_id;sensor_type;location;lat;lon;timestamp;pressure;altitude;pressure_sealevel;temperature;humidity
9289;BME280;4683;50.864;12.086;2023-01-28T00:02:02;99954.59;;;2.39;100.00
9289;BME280;4683;50.864;12.086;2023-01-28T00:04:31;99962.22;;;2.29;100.00
9289;BME280;4683;50.864;12.086;2023-01-28T00:07:00;99954.72;;;2.38;100.00
9289;BME280;4683;50.864;12.086;2023-01-28T00:09:30;99958.25;;;2.24;100.00
9289;BME280;4683;50.864;12.086;2023-01-28T00:11:58;99960.00;;;2.36;100.00
9289;BME280;4683;50.864;12.086;2023-01-28T00:14:31;99966.47;;;2.31;100.00
9289;BME280;4683;50.864;12.086;2023-01-28T00:16:59;99960.44;;;2.30;100.00
9289;BME280;4683;50.864;12.086;2023-01-28T00:19:28;99961.56;;;2.39;100.00
9289;BME280;4683;50.864;12.086;2023-01-28T00:21:56;99964.59;;;2.45;100.00
9289;BME280;4683;50.864;12.086;2023-01-28T00:24:24;99965.53;;;2.32;100.00
9289;BME280;4683;50.864;12.086;2023-01-28T00:26:54;99969.19;;;2.29;100.00
9289;BME280;4683;50.864;12.086;2023-01-28T00:29:23;99963.78;;;2.32;100.00
9289;BME280;4683;50.864;12.086;2023-01-28T00:31:51;99970.84;;;2.17;100.00
9289;BME280;4683;50.864;12.086;2023-01-28T00:34:20;99964.50;;;2.34;100.00
9289;BME280;4683;50.864;12.086;2023-01-28T00:36:54;99956.91;;;2.18;100.00
9289;BME280;4683;50.864;12.086;2023-01-28T00:39:24;99960.94;;;2.22;100.00
9289;BME280;4683;50.864;12.086;2023-01-28T00:41:55;99960.56;;;2.28;100.00
9289;BME280;4683;50.864;12.086;2023-01-28T00:44:24;99954.59;;;2.39;100.00
9289;BME280;4683;50.864;12.086;2023-01-28T00:47:02;99966.88;;;2.50;100.00
9289;BME280;4683;50.864;12.086;2023-01-28T00:49:31;99965.44;;;2.46;100.00
9289;BME280;4683;50.864;12.086;2023-01-28T00:52:00;99969.50;;;2.50;100.00
9289;BME280;4683;50.864;12.086;2023-01-28T00:54:30;99968.16;;;2.19;100.00
9289;BME280;4683;50.864;12.086;2023-01-28T00:57:01;99968.75;;;2.35;100.00
9289;BME280;4683;50.864;12.086;2023-01-28T00:59:29;99970.34;;;2.25;100.00
9289;BME280;4683;50.864;12.086;2023-01-28T01:01:58;99970.53;;;2.35;100.00
9289;BME280;4683;50.864;12.086;2023-01-28T01:04:39;99980.31;;;2.31;100.00
9289;BME280;4683;50.864;12.086;2023-01-28T01:07:07;99979.41;;;2.19;100.00
9289;BME280;4683;50.864;12.086;2023-01-28T01:09:36;99968.75;;;2.22;100.00
9289;BME280;4683;50.864;12.086;2023-01-28T01:12:08;99983.53;;;2.35;100.00
9289;BME280;4683;50.864;12.086;2023-01-28T01:14:37;99981.16;;;2.32;100.00
9289;BME280;4683;50.864;12.086;2023-01-28T01:17:06;99981.88;;;2.34;100.00
9289;BME280;4683;50.864;12.086;2023-01-28T01:19:35;99992.50;;;2.05;100.00
9289;BME280;4683;50.864;12.086;2023-01-28T01:22:04;99996.25;;;2.26;100.00
9289;BME280;4683;50.864;12.086;2023-01-28T01:24:32;99984.28;;;2.37;100.00
9289;BME280;4683;50.864;12.086;2023-01-28T01:27:01;99993.75;;;2.38;100.00
9289;BME280;4683;50.864;12.086;2023-01-28T01:29:33;99986.47;;;2.43;100.00
9289;BME280;4683;50.864;12.086;2023-01-28T01:32:02;99995.22;;;2.42;100.00
9289;BME280;4683;50.864;12.086;2023-01-28T01:34:31;99994.59;;;2.38;100.00
9289;BME280;4683;50.864;12.086;2023-01-28T01:36:59;99990.72;;;2.44;100.00
9289;BME280;4683;50.864;12.086;2023-01-28T01:39:28;99985.44;;;2.33;100.00
9289;BME280;4683;50.864;12.086;2023-01-28T01:41:56;99989.81;;;2.19;100.00
9289;BME280;4683;50.864;12.086;2023-01-28T01:44:57;99986.88;;;2.11;100.00
9289;BME280;4683;50.864;12.086;2023-01-28T01:47:35;99980.84;;;2.23;100.00
9289;BME280;4683;50.864;12.086;2023-01-28T01:50:15;99987.72;;;2.24;100.00
9289;BME280;4683;50.864;12.086;2023-01-28T01:52:46;99976.28;;;2.14;100.00
9289;BME280;4683;50.864;12.086;2023-01-28T01:55:20;99980.44;;;2.17;100.00
9289;BME280;4683;50.864;12.086;2023-01-28T01:57:54;99978.53;;;2.32;100.00
9289;BME280;4683;50.864;12.086;2023-01-28T02:00:26;99987.22;;;2.19;100.00
9289;BME280;4683;50.864;12.086;2023-01-28T02:02:54;99991.47;;;2.33;100.00
9289;BME280;4683;50.864;12.086;2023-01-28T02:05:25;99995.63;;;2.36;100.00
9289;BME280;4683;50.864;12.086;2023-01-28T02:07:57;99994.78;;;2.22;100.00
9289;BME280;4683;50.864;12.086;2023-01-28T02:10:49;99998.44;;;2.20;100.00
9289;BME280;4683;50.864;12.086;2023-01-28T02:13:26;100008.09;;;2.18;100.00
9289;BME280;4683;50.864;12.086;2023-01-28T02:15:59;100006.66;;;2.26;100.00
9289;BME280;4683;50.864;12.086;2023-01-28T02:18:28;99998.97;;;2.38;100.00
9289;BME280;4683;50.864;12.086;2023-01-28T02:21:17;100005.63;;;2.42;100.00
9289;BME280;4683;50.864;12.086;2023-01-28T02:24:23;100010.41;;;2.22;100.00
9289;BME280;4683;50.864;12.086;2023-01-28T02:27:15;100008.41;;;2.13;100.00
9289;BME280;4683;50.864;12.086;2023-01-28T02:29:54;100012.50;;;2.30;100.00
9289;BME280;4683;50.864;12.086;2023-01-28T02:32:48;100008.22;;;2.42;100.00
9289;BME280;4683;50.864;12.086;2023-01-28T02:35:34;100004.16;;;2.50;100.00
9289;BME280;4683;50.864;12.086;2023-01-28T02:38:10;100009.56;;;2.60;100.00
9289;BME280;4683;50.864;12.086;2023-01-28T02:40:44;100012.28;;;2.33;100.00
9289;BME280;4683;50.864;12.086;2023-01-28T02:43:33;100012.81;;;2.38;100.00
9289;BME280;4683;50.864;12.086;2023-01-28T02:46:15;100012.50;;;2.43;100.00
9289;BME280;4683;50.864;12.086;2023-01-28T02:49:08;100018.53;;;2.56;100.00
9289;BME280;4683;50.864;12.086;2023-01-28T02:52:11;100012.88;;;2.49;100.00
9289;BME280;4683;50.864;12.086;2023-01-28T02:54:52;100016.63;;;2.58;100.00
9289;BME280;4683;50.864;12.086;2023-01-28T02:57:34;100020.38;;;2.54;100.00
9289;BME280;4683;50.864;12.086;2023-01-28T03:00:10;100013.22;;;2.45;100.00
9289;BME280;4683;50.864;12.086;2023-01-28T03:02:51;100025.00;;;2.25;100.00
9289;BME280;4683;50.864;12.086;2023-01-28T03:05:25;100024.16;;;2.24;100.00
9289;BME280;4683;50.864;12.086;2023-01-28T03:07:56;100013.75;;;2.37;100.00
9289;BME280;4683;50.864;12.086;2023-01-28T03:10:25;100027.50;;;2.52;100.00
9289;BME280;4683;50.864;12.086;2023-01-28T03:12:56;100023.75;;;2.56;100.00
9289;BME280;4683;50.864;12.086;2023-01-28T03:15:47;100030.59;;;2.32;100.00
9289;BME280;4683;50.864;12.086;2023-01-28T03:18:38;100026.22;;;2.45;100.00
9289;BME280;4683;50.864;12.086;2023-01-28T03:21:32;100030.84;;;2.41;100.00
9289;BME280;4683;50.864;12.086;2023-01-28T03:24:23;100028.94;;;2.31;100.00
9289;BME280;4683;50.864;12.086;2023-01-28T03:27:16;100028.41;;;2.25;100.00
9289;BME280;4683;50.864;12.086;2023-01-28T03:30:08;100026.97;;;2.21;100.00
9289;BME280;4683;50.864;12.086;2023-01-28T03:32:56;100033.94;;;2.21;100.00
9289;BME280;4683;50.864;12.086;2023-01-28T03:35:44;100029.38;;;2.24;100.00
9289;BME280;4683;50.864;12.086;2023-01-28T03:38:31;100027.56;;;2.12;100.00
9289;BME280;4683;50.864;12.086;2023-01-28T03:41:09;100031.31;;;1.95;100.00
9289;BME280;4683;50.864;12.086;2023-01-28T03:43:38;100032.69;;;2.01;100.00
9289;BME280;4683;50.864;12.086;2023-01-28T03:46:06;100045.16;;;1.96;100.00
9289;BME280;4683;50.864;12.086;2023-01-28T03:48:35;100046.81;;;1.97;100.00
9289;BME280;4683;50.864;12.086;2023-01-28T03:51:05;100050.38;;;1.96;100.00
9289;BME280;4683;50.864;12.086;2023-01-28T03:53:33;100042.63;;;1.94;100.00
9289;BME280;4683;50.864;12.086;2023-01-28T03:56:01;100045.47;;;2.04;100.00
9289;BME280;4683;50.864;12.086;2023-01-28T03:58:30;100052.88;;;2.10;100.00
9289;BME280;4683;50.864;12.086;2023-01-28T04:01:12;100061.63;;;2.09;100.00
9289;BME280;4683;50.864;12.086;2023-01-28T04:03:41;100058.28;;;2.07;100.00
9289;BME280;4683;50.864;12.086;2023-01-28T04:06:10;100057.66;;;2.16;100.00
9289;BME280;4683;50.864;12.086;2023-01-28T04:08:39;100054.84;;;2.07;100.00
9289;BME280;4683;50.864;12.086;2023-01-28T04:11:16;100058.50;;;2.17;100.00
9289;BME280;4683;50.864;12.086;2023-01-28T04:13:46;100061.53;;;2.23;100.00
9289;BME280;4683;50.864;12.086;2023-01-28T04:16:16;100061.84;;;2.32;100.00
9289;BME280;4683;50.864;12.086;2023-01-28T04:18:46;100065.44;;;2.03;100.00
9289;BME280;4683;50.864;12.086;2023-01-28T04:21:16;100062.34;;;2.11;100.00
9289;BME280;4683;50.864;12.086;2023-01-28T04:23:44;100071.47;;;2.04;100.00
9289;BME280;4683;50.864;12.086;2023-01-28T04:26:12;100068.44;;;1.85;100.00
9289;BME280;4683;50.864;12.086;2023-01-28T04:28:41;100065.34;;;1.92;100.00
9289;BME280;4683;50.864;12.086;2023-01-28T04:31:09;100068.03;;;1.91;100.00
9289;BME280;4683;50.864;12.086;2023-01-28T04:33:38;100066.16;;;1.93;100.00
9289;BME280;4683;50.864;12.086;2023-01-28T04:36:06;100066.38;;;2.02;100.00
9289;BME280;4683;50.864;12.086;2023-01-28T04:38:36;100070.69;;;2.16;100.00
9289;BME280;4683;50.864;12.086;2023-01-28T04:41:04;100071.81;;;2.12;100.00
9289;BME280;4683;50.864;12.086;2023-01-28T04:43:33;100072.34;;;2.17;100.00
9289;BME280;4683;50.864;12.086;2023-01-28T04:46:03;100074.50;;;1.98;100.00
9289;BME280;4683;50.864;12.086;2023-01-28T04:48:31;100074.84;;;2.06;100.00
9289;BME280;4683;50.864;12.086;2023-01-28T04:51:02;100084.91;;;1.98;100.00
9289;BME280;4683;50.864;12.086;2023-01-28T04:53:30;100079.50;;;2.01;100.00
9289;BME280;4683;50.864;12.086;2023-01-28T04:56:00;100072.75;;;2.11;100.00
9289;BME280;4683;50.864;12.086;2023-01-28T04:58:29;100071.69;;;2.01;100.00
9289;BME280;4683;50.864;12.086;2023-01-28T05:00:58;100080.56;;;2.11;100.00
9289;BME280;4683;50.864;12.086;2023-01-28T05:03:28;100082.44;;;2.09;100.00
9289;BME280;4683;50.864;12.086;2023-01-28T05:05:56;100084.19;;;2.09;100.00
9289;BME280;4683;50.864;12.086;2023-01-28T05:08:25;100088.91;;;2.16;100.00
9289;BME280;4683;50.864;12.086;2023-01-28T05:10:53;100091.09;;;2.10;100.00
9289;BME280;4683;50.864;12.086;2023-01-28T05:13:23;100098.03;;;1.96;100.00
9289;BME280;4683;50.864;12.086;2023-01-28T05:15:52;100098.66;;;2.00;100.00
9289;BME280;4683;50.864;12.086;2023-01-28T05:18:20;100093.34;;;2.01;100.00
9289;BME280;4683;50.864;12.086;2023-01-28T05:20:49;100102.19;;;1.99;100.00
9289;BME280;4683;50.864;12.086;2023-01-28T05:23:17;100098.22;;;1.66;100.00
9289;BME280;4683;50.864;12.086;2023-01-28T05:25:45;100103.66;;;1.76;100.00
9289;BME280;4683;50.864;12.086;2023-01-28T05:28:14;100099.63;;;1.85;100.00
9289;BME280;4683;50.864;12.086;2023-01-28T05:30:44;100098.50;;;1.89;100.00
9289;BME280;4683;50.864;12.086;2023-01-28T05:33:12;100103.25;;;1.69;100.00
9289;BME280;4683;50.864;12.086;2023-01-28T05:35:42;100107.09;;;1.76;100.00
9289;BME280;4683;50.864;12.086;2023-01-28T05:38:10;100108.03;;;1.75;100.00
9289;BME280;4683;50.864;12.086;2023-01-28T05:40:39;100110.22;;;1.82;100.00
9289;BME280;4683;50.864;12.086;2023-01-28T05:43:07;100115.84;;;1.75;100.00
9289;BME280;4683;50.864;12.086;2023-01-28T05:45:36;100116.38;;;1.81;100.00
9289;BME280;4683;50.864;12.086;2023-01-28T05:48:06;100108.16;;;1.74;100.00
9289;BME280;4683;50.864;12.086;2023-01-28T05:50:35;100114.19;;;1.74;100.00
9289;BME280;4683;50.864;12.086;2023-01-28T05:53:06;100123.28;;;1.67;100.00
9289;BME280;4683;50.864;12.086;2023-01-28T05:55:34;100120.38;;;1.59;100.00
9289;BME280;4683;50.864;12.086;2023-01-28T05:58:03;100135.97;;;1.59;100.00
9289;BME280;4683;50.864;12.086;2023-01-28T06:00:31;100133.66;;;1.55;100.00
9289;BME280;4683;50.864;12.086;2023-01-28T06:03:00;100131.94;;;1.12;100.00
9289;BME280;4683;50.864;12.086;2023-01-28T06:05:30;100125.25;;;1.08;100.00
9289;BME280;4683;50.864;12.086;2023-01-28T06:07:58;100136.38;;;1.24;100.00
9289;BME280;4683;50.864;12.086;2023-01-28T06:10:26;100146.88;;;1.23;100.00
9289;BME280;4683;50.864;12.086;2023-01-28T06:12:55;100152.91;;;1.38;100.00
9289;BME280;4683;50.864;12.086;2023-01-28T06:15:31;100157.81;;;1.42;100.00
9289;BME280;4683;50.864;12.086;2023-01-28T06:18:00;100159.84;;;1.51;100.00
9289;BME280;4683;50.864;12.086;2023-01-28T06:20:32;100165.47;;;1.58;100.00
9289;BME280;4683;50.864;12.086;2023-01-28T06:23:01;100158.44;;;1.32;100.00
9289;BME280;4683;50.864;12.086;2023-01-28T06:25:29;100163.72;;;1.44;100.00
9289;BME280;4683;50.864;12.086;2023-01-28T06:27:58;100169.59;;;1.48;100.00
9289;BME280;4683;50.864;12.086;2023-01-28T06:30:27;100175.25;;;1.40;100.00
9289;BME280;4683;50.864;12.086;2023-01-28T06:32:55;100170.88;;;1.55;100.00
9289;BME280;4683;50.864;12.086;2023-01-28T06:35:24;100183.31;;;1.64;100.00
9289;BME280;4683;50.864;12.086;2023-01-28T06:37:54;100183.22;;;1.51;100.00
9289;BME280;4683;50.864;12.086;2023-01-28T06:40:24;100179.97;;;1.48;100.00
9289;BME280;4683;50.864;12.086;2023-01-28T06:42:53;100177.19;;;1.65;100.00
9289;BME280;4683;50.864;12.086;2023-01-28T06:45:22;100178.84;;;1.66;100.00
9289;BME280;4683;50.864;12.086;2023-01-28T06:47:52;100180.50;;;1.67;100.00
9289;BME280;4683;50.864;12.086;2023-01-28T06:50:22;100182.81;;;1.72;100.00
9289;BME280;4683;50.864;12.086;2023-01-28T06:52:51;100190.31;;;1.76;100.00
9289;BME280;4683;50.864;12.086;2023-01-28T06:55:21;100186.91;;;1.62;100.00
9289;BME280;4683;50.864;12.086;2023-01-28T06:57:50;100193.78;;;1.63;100.00
9289;BME280;4683;50.864;12.086;2023-01-28T07:00:20;100194.09;;;1.44;100.00
9289;BME280;4683;50.864;12.086;2023-01-28T07:02:49;100203.94;;;1.39;100.00
9289;BME280;4683;50.864;12.086;2023-01-28T07:05:18;100202.44;;;1.49;100.00
9289;BME280;4683;50.864;12.086;2023-01-28T07:07:46;100211.56;;;1.42;100.00
9289;BME280;4683;50.864;12.086;2023-01-28T07:10:15;100216.19;;;1.22;100.00
9289;BME280;4683;50.864;12.086;2023-01-28T07:12:46;100207.84;;;1.17;100.00
9289;BME280;4683;50.864;12.086;2023-01-28T07:15:15;100206.53;;;1.10;100.00
9289;BME280;4683;50.864;12.086;2023-01-28T07:17:44;100213.78;;;1.34;100.00
9289;BME280;4683;50.864;12.086;2023-01-28T07:20:14;100215.72;;;1.30;100.00
9289;BME280;4683;50.864;12.086;2023-01-28T07:22:44;100218.31;;;1.30;100.00
9289;BME280;4683;50.864;12.086;2023-01-28T07:25:14;100225.94;;;1.33;100.00
9289;BME280;4683;50.864;12.086;2023-01-28T07:27:52;100220.09;;;1.15;100.00
9289;BME280;4683;50.864;12.086;2023-01-28T07:30:21;100223.81;;;1.11;100.00
9289;BME280;4683;50.864;12.086;2023-01-28T07:32:53;100210.63;;;1.29;100.00
9289;BME280;4683;50.864;12.086;2023-01-28T07:35:23;100212.69;;;1.38;100.00
9289;BME280;4683;50.864;12.086;2023-01-28T07:37:52;100214.50;;;1.36;100.00
9289;BME280;4683;50.864;12.086;2023-01-28T07:40:21;100210.44;;;1.32;100.00
9289;BME280;4683;50.864;12.086;2023-01-28T07:42:53;100207.28;;;1.41;100.00
9289;BME280;4683;50.864;12.086;2023-01-28T07:45:23;100212.47;;;1.55;100.00
9289;BME280;4683;50.864;12.086;2023-01-28T07:47:56;100206.91;;;1.61;100.00
9289;BME280;4683;50.864;12.086;2023-01-28T07:50:25;100202.41;;;1.77;100.00
9289;BME280;4683;50.864;12.086;2023-01-28T07:52:55;100206.91;;;1.61;100.00
9289;BME280;4683;50.864;12.086;2023-01-28T07:55:24;100209.34;;;1.50;100.00
9289;BME280;4683;50.864;12.086;2023-01-28T07:57:57;100211.81;;;1.51;100.00
9289;BME280;4683;50.864;12.086;2023-01-28T08:00:28;100216.00;;;1.68;100.00
9289;BME280;4683;50.864;12.086;2023-01-28T08:02:58;100222.22;;;1.51;100.00
9289;BME280;4683;50.864;12.086;2023-01-28T08:05:32;100219.25;;;1.43;100.00
9289;BME280;4683;50.864;12.086;2023-01-28T08:08:06;100213.69;;;1.21;100.00
9289;BME280;4683;50.864;12.086;2023-01-28T08:10:34;100221.75;;;1.31;100.00
9289;BME280;4683;50.864;12.086;2023-01-28T08:13:05;100231.81;;;1.37;100.00
9289;BME280;4683;50.864;12.086;2023-01-28T08:15:34;100231.03;;;1.06;100.00
9289;BME280;4683;50.864;12.086;2023-01-28T08:18:03;100234.03;;;1.14;100.00
9289;BME280;4683;50.864;12.086;2023-01-28T08:20:35;100238.97;;;0.89;100.00
9289;BME280;4683;50.864;12.086;2023-01-28T08:23:08;100237.03;;;0.92;100.00
9289;BME280;4683;50.864;12.086;2023-01-28T08:25:37;100236.06;;;1.09;100.00
9289;BME280;4683;50.864;12.086;2023-01-28T08:28:08;100243.09;;;1.21;100.00
9289;BME280;4683;50.864;12.086;2023-01-28T08:30:39;100248.84;;;1.26;100.00
9289;BME280;4683;50.864;12.086;2023-01-28T08:33:10;100250.69;;;0.96;100.00
9289;BME280;4683;50.864;12.086;2023-01-28T08:35:41;100247.81;;;1.00;100.00
9289;BME280;4683;50.864;12.086;2023-01-28T08:38:12;100250.88;;;0.93;100.00
9289;BME280;4683;50.864;12.086;2023-01-28T08:40:41;100259.00;;;0.57;100.00
9289;BME280;4683;50.864;12.086;2023-01-28T08:43:10;100254.81;;;0.54;100.00
9289;BME280;4683;50.864;12.086;2023-01-28T08:45:39;100260.00;;;0.70;100.00
9289;BME280;4683;50.864;12.086;2023-01-28T08:48:13;100253.03;;;1.00;100.00
9289;BME280;4683;50.864;12.086;2023-01-28T08:50:43;100255.22;;;0.92;100.00
9289;BME280;4683;50.864;12.086;2023-01-28T08:53:15;100259.50;;;1.08;100.00
9289;BME280;4683;50.864;12.086;2023-01-28T08:55:45;100261.97;;;0.95;100.00
9289;BME280;4683;50.864;12.086;2023-01-28T08:58:17;100258.78;;;0.75;100.00
9289;BME280;4683;50.864;12.086;2023-01-28T09:00:46;100261.78;;;0.84;100.00
9289;BME280;4683;50.864;12.086;2023-01-28T09:03:16;100264.53;;;1.11;100.00
9289;BME280;4683;50.864;12.086;2023-01-28T09:05:46;100269.47;;;1.30;100.00
9289;BME280;4683;50.864;12.086;2023-01-28T09:08:15;100264.44;;;1.41;100.00
9289;BME280;4683;50.864;12.086;2023-01-28T09:10:45;100266.59;;;1.48;100.00
9289;BME280;4683;50.864;12.086;2023-01-28T09:13:15;100264.00;;;1.48;100.00
9289;BME280;4683;50.864;12.086;2023-01-28T09:15:43;100269.75;;;1.68;100.00
9289;BME280;4683;50.864;12.086;2023-01-28T09:18:13;100275.31;;;1.76;100.00
9289;BME280;4683;50.864;12.086;2023-01-28T09:20:43;100271.50;;;1.67;100.00
9289;BME280;4683;50.864;12.086;2023-01-28T09:23:14;100276.69;;;1.82;100.00
9289;BME280;4683;50.864;12.086;2023-01-28T09:25:45;100282.53;;;1.99;100.00
9289;BME280;4683;50.864;12.086;2023-01-28T09:28:18;100277.28;;;1.58;100.00
9289;BME280;4683;50.864;12.086;2023-01-28T09:30:48;100274.88;;;1.55;100.00
9289;BME280;4683;50.864;12.086;2023-01-28T09:33:16;100288.72;;;1.70;100.00
9289;BME280;4683;50.864;12.086;2023-01-28T09:35:45;100291.75;;;1.91;100.00
9289;BME280;4683;50.864;12.086;2023-01-28T09:38:13;100291.56;;;1.94;100.00
9289;BME280;4683;50.864;12.086;2023-01-28T09:40:43;100301.25;;;1.92;100.00
9289;BME280;4683;50.864;12.086;2023-01-28T09:46:31;100298.81;;;1.89;100.00
9289;BME280;4683;50.864;12.086;2023-01-28T09:49:02;100306.34;;;1.93;100.00
9289;BME280;4683;50.864;12.086;2023-01-28T09:51:35;100309.69;;;1.95;100.00
9289;BME280;4683;50.864;12.086;2023-01-28T09:54:32;100307.09;;;1.67;100.00
9289;BME280;4683;50.864;12.086;2023-01-28T09:57:06;100303.47;;;1.69;100.00
9289;BME280;4683;50.864;12.086;2023-01-28T09:59:41;100307.38;;;1.91;100.00
9289;BME280;4683;50.864;12.086;2023-01-28T10:02:36;100309.03;;;2.06;100.00
9289;BME280;4683;50.864;12.086;2023-01-28T10:05:19;100305.66;;;2.18;100.00
9289;BME280;4683;50.864;12.086;2023-01-28T10:07:59;100311.63;;;2.06;100.00
9289;BME280;4683;50.864;12.086;2023-01-28T10:10:39;100315.50;;;2.27;100.00
9289;BME280;4683;50.864;12.086;2023-01-28T10:13:25;100304.78;;;2.32;100.00
9289;BME280;4683;50.864;12.086;2023-01-28T10:16:18;100317.75;;;2.05;100.00
9289;BME280;4683;50.864;12.086;2023-01-28T10:18:54;100321.63;;;2.12;100.00
9289;BME280;4683;50.864;12.086;2023-01-28T10:21:27;100311.56;;;2.35;100.00
9289;BME280;4683;50.864;12.086;2023-01-28T10:24:02;100305.97;;;2.41;100.00
9289;BME280;4683;50.864;12.086;2023-01-28T10:26:34;100312.44;;;2.48;100.00
9289;BME280;4683;50.864;12.086;2023-01-28T10:29:11;100314.50;;;2.01;100.00
9289;BME280;4683;50.864;12.086;2023-01-28T10:31:52;100316.72;;;1.36;100.00
9289;BME280;4683;50.864;12.086;2023-01-28T10:34:21;100314.56;;;1.14;100.00
9289;BME280;4683;50.864;12.086;2023-01-28T10:36:50;100312.44;;;1.21;100.00
9289;BME280;4683;50.864;12.086;2023-01-28T10:39:22;100326.03;;;1.55;100.00
9289;BME280;4683;50.864;12.086;2023-01-28T10:41:52;100321.06;;;1.21;100.00
9289;BME280;4683;50.864;12.086;2023-01-28T10:44:30;100316.88;;;1.05;100.00
9289;BME280;4683;50.864;12.086;2023-01-28T10:47:09;100326.06;;;1.10;100.00
9289;BME280;4683;50.864;12.086;2023-01-28T10:49:45;100324.91;;;1.44;100.00
9289;BME280;4683;50.864;12.086;2023-01-28T10:52:16;100325.59;;;1.91;100.00
9289;BME280;4683;50.864;12.086;2023-01-28T10:54:46;100326.66;;;2.15;100.00
9289;BME280;4683;50.864;12.086;2023-01-28T10:57:16;100335.94;;;2.19;100.00
9289;BME280;4683;50.864;12.086;2023-01-28T10:59:47;100332.81;;;2.00;100.00
9289;BME280;4683;50.864;12.086;2023-01-28T11:02:33;100330.03;;;1.60;100.00
9289;BME280;4683;50.864;12.086;2023-01-28T11:05:15;100325.53;;;1.19;100.00
9289;BME280;4683;50.864;12.086;2023-01-28T11:07:46;100323.75;;;0.90;100.00
9289;BME280;4683;50.864;12.086;2023-01-28T11:10:25;100328.81;;;1.37;100.00
9289;BME280;4683;50.864;12.086;2023-01-28T11:13:01;100323.34;;;1.70;100.00
9289;BME280;4683;50.864;12.086;2023-01-28T11:15:31;100327.31;;;1.90;100.00
9289;BME280;4683;50.864;12.086;2023-01-28T11:18:04;100326.22;;;1.80;100.00
9289;BME280;4683;50.864;12.086;2023-01-28T11:20:40;100315.94;;;1.64;100.00
9289;BME280;4683;50.864;12.086;2023-01-28T11:23:21;100318.78;;;1.88;100.00
9289;BME280;4683;50.864;12.086;2023-01-28T11:26:02;100314.88;;;1.67;100.00
9289;BME280;4683;50.864;12.086;2023-01-28T11:28:33;100318.69;;;1.90;100.00
9289;BME280;4683;50.864;12.086;2023-01-28T11:31:03;100312.72;;;2.16;100.00
9289;BME280;4683;50.864;12.086;2023-01-28T11:33:38;100312.59;;;2.32;100.00
9289;BME280;4683;50.864;12.086;2023-01-28T11:36:14;100314.47;;;2.16;100.00
9289;BME280;4683;50.864;12.086;2023-01-28T11:38:51;100324.81;;;1.89;100.00
9289;BME280;4683;50.864;12.086;2023-01-28T11:41:28;100320.47;;;1.89;100.00
9289;BME280;4683;50.864;12.086;2023-01-28T11:43:59;100325.22;;;1.83;100.00
9289;BME280;4683;50.864;12.086;2023-01-28T11:46:52;100320.84;;;1.83;100.00
9289;BME280;4683;50.864;12.086;2023-01-28T11:49:44;100317.31;;;1.70;100.00
9289;BME280;4683;50.864;12.086;2023-01-28T11:52:27;100326.22;;;1.66;100.00
9289;BME280;4683;50.864;12.086;2023-01-28T11:55:10;100312.56;;;1.62;100.00
9289;BME280;4683;50.864;12.086;2023-01-28T11:57:55;100321.50;;;1.87;100.00
9289;BME280;4683;50.864;12.086;2023-01-28T12:00:37;100310.13;;;2.02;100.00
9289;BME280;4683;50.864;12.086;2023-01-28T12:07:20;100313.63;;;2.29;100.00
9289;BME280;4683;50.864;12.086;2023-01-28T12:09:57;100316.16;;;2.02;100.00
9289;BME280;4683;50.864;12.086;2023-01-28T12:12:56;100300.94;;;1.68;100.00
9289;BME280;4683;50.864;12.086;2023-01-28T12:16:03;100302.44;;;2.00;100.00
9289;BME280;4683;50.864;12.086;2023-01-28T12:22:08;100299.19;;;1.97;100.00
9289;BME280;4683;50.864;12.086;2023-01-28T12:24:58;100304.75;;;1.48;100.00
9289;BME280;4683;50.864;12.086;2023-01-28T12:27:44;100297.88;;;1.90;100.00
9289;BME280;4683;50.864;12.086;2023-01-28T12:30:32;100286.88;;;2.13;100.00
9289;BME280;4683;50.864;12.086;2023-01-28T12:33:32;100290.22;;;2.15;100.00
9289;BME280;4683;50.864;12.086;2023-01-28T12:36:09;100297.94;;;2.17;100.00
9289;BME280;4683;50.864;12.086;2023-01-28T12:38:57;100305.09;;;1.99;100.00
9289;BME280;4683;50.864;12.086;2023-01-28T12:41:35;100298.78;;;1.32;100.00
9289;BME280;4683;50.864;12.086;2023-01-28T12:44:13;100293.53;;;1.62;100.00
9289;BME280;4683;50.864;12.086;2023-01-28T12:46:54;100277.63;;;1.95;100.00
9289;BME280;4683;50.864;12.086;2023-01-28T12:49:28;100277.41;;;2.12;100.00
9289;BME280;4683;50.864;12.086;2023-01-28T12:52:04;100293.19;;;2.23;100.00
9289;BME280;4683;50.864;12.086;2023-01-28T12:54:46;100286.56;;;2.32;100.00
9289;BME280;4683;50.864;12.086;2023-01-28T12:57:28;100288.13;;;2.35;100.00
9289;BME280;4683;50.864;12.086;2023-01-28T13:00:12;100285.97;;;2.41;100.00
9289;BME280;4683;50.864;12.086;2023-01-28T13:02:50;100283.09;;;2.32;100.00
9289;BME280;4683;50.864;12.086;2023-01-28T13:05:24;100285.69;;;2.32;100.00
9289;BME280;4683;50.864;12.086;2023-01-28T13:08:00;100285.22;;;2.39;100.00
9289;BME280;4683;50.864;12.086;2023-01-28T13:10:36;100282.91;;;2.35;100.00
9289;BME280;4683;50.864;12.086;2023-01-28T13:13:06;100281.97;;;2.36;100.00
9289;BME280;4683;50.864;12.086;2023-01-28T13:15:42;100292.09;;;2.40;100.00
9289;BME280;4683;50.864;12.086;2023-01-28T13:18:33;100292.97;;;2.41;100.00
9289;BME280;4683;50.864;12.086;2023-01-28T13:21:03;100292.44;;;2.48;100.00
9289;BME280;4683;50.864;12.086;2023-01-28T13:23:41;100293.91;;;2.52;100.00
9289;BME280;4683;50.864;12.086;2023-01-28T13:26:29;100290.59;;;2.50;100.00
9289;BME280;4683;50.864;12.086;2023-01-28T13:29:31;100293.69;;;2.01;100.00
9289;BME280;4683;50.864;12.086;2023-01-28T13:32:28;100297.25;;;1.72;100.00
9289;BME280;4683;50.864;12.086;2023-01-28T13:35:00;100301.06;;;1.52;100.00
9289;BME280;4683;50.864;12.086;2023-01-28T13:37:35;100305.97;;;1.57;100.00
9289;BME280;4683;50.864;12.086;2023-01-28T13:40:24;100296.13;;;1.62;100.00
9289;BME280;4683;50.864;12.086;2023-01-28T13:43:02;100306.97;;;1.97;100.00
9289;BME280;4683;50.864;12.086;2023-01-28T13:45:32;100291.34;;;2.11;100.00
9289;BME280;4683;50.864;12.086;2023-01-28T13:48:26;100305.66;;;2.04;100.00
9289;BME280;4683;50.864;12.086;2023-01-28T13:50:58;100312.13;;;2.25;100.00